createdAt,value
2018-09-11T00:00:51.010Z,4.00
2018-09-11T00:01:55.270Z,4.40
2018-09-11T00:02:59.725Z,5.00
2018-09-11T00:04:04.776Z,3.80
2018-09-11T00:05:08.819Z,4.03
2018-09-11T00:06:13.333Z,4.28
2018-09-11T00:07:17.662Z,3.37
2018-09-11T00:08:23.183Z,4.22
2018-09-11T00:09:27.430Z,5.40
2018-09-11T00:10:31.566Z,3.75
2018-09-11T00:11:35.663Z,4.58
2018-09-11T00:12:41.163Z,4.20
2018-09-11T00:13:45.630Z,4.30
2018-09-11T00:14:49.825Z,4.80
2018-09-11T00:15:54.754Z,3.95
2018-09-11T00:16:59.775Z,3.77
2018-09-11T00:18:03.864Z,4.87
2018-09-11T00:19:08.108Z,4.35
2018-09-11T00:20:12.669Z,4.42
2018-09-11T00:21:17.273Z,3.80
2018-09-11T00:22:22.019Z,4.62
2018-09-11T00:23:26.245Z,4.17
2018-09-11T00:24:30.650Z,4.45
2018-09-11T00:25:34.781Z,5.58
2018-09-11T00:26:38.828Z,3.45
2018-09-11T00:27:42.808Z,4.45
2018-09-11T00:28:46.876Z,5.92
2018-09-11T00:29:51.261Z,4.62
2018-09-11T00:30:56.045Z,3.92
2018-09-11T00:32:00.093Z,4.50
2018-09-11T00:33:04.837Z,4.72
2018-09-11T00:34:09.314Z,3.60
2018-09-11T00:35:13.628Z,3.80
2018-09-11T00:36:17.950Z,4.45
2018-09-11T00:37:23.666Z,4.20
2018-09-11T00:38:28.082Z,4.85
2018-09-11T00:39:32.235Z,4.12
2018-09-11T00:40:36.367Z,4.90
2018-09-11T00:41:40.750Z,4.95
2018-09-11T00:42:45.257Z,5.50
2018-09-11T00:43:49.510Z,5.83
2018-09-11T00:44:54.114Z,5.58
2018-09-11T00:45:58.454Z,5.62
2018-09-11T00:47:02.666Z,4.90
2018-09-11T00:48:06.801Z,4.45
2018-09-11T00:49:11.289Z,4.42
2018-09-11T00:50:15.394Z,4.53
2018-09-11T00:51:19.461Z,4.35
2018-09-11T00:52:24.029Z,4.47
2018-09-11T00:53:28.114Z,3.80
2018-09-11T00:54:32.453Z,5.00
2018-09-11T00:55:36.786Z,4.53
2018-09-11T00:56:41.022Z,5.58
2018-09-11T00:57:45.293Z,4.60
2018-09-11T00:58:49.417Z,4.22
2018-09-11T00:59:53.450Z,3.65
2018-09-11T01:00:57.517Z,4.30
2018-09-11T01:02:01.801Z,6.22
2018-09-11T01:03:06.419Z,4.92
2018-09-11T01:04:10.850Z,5.17
2018-09-11T01:05:15.233Z,4.47
2018-09-11T01:06:19.270Z,3.92
2018-09-11T01:07:23.438Z,3.98
2018-09-11T01:08:27.730Z,3.85
2018-09-11T01:09:32.125Z,4.75
2018-09-11T01:10:37.267Z,4.40
2018-09-11T01:11:41.466Z,4.80
2018-09-11T01:12:45.630Z,4.17
2018-09-11T01:13:49.982Z,4.80
2018-09-11T01:14:54.487Z,5.20
2018-09-11T01:15:58.559Z,5.70
2018-09-11T01:17:02.853Z,4.65
2018-09-11T01:18:07.157Z,5.17
2018-09-11T01:19:13.927Z,5.45
2018-09-11T01:20:18.291Z,5.87
2018-09-11T01:21:22.390Z,5.78
2018-09-11T01:22:27.334Z,9.05
2018-09-11T01:23:31.701Z,7.70
2018-09-11T01:24:35.738Z,8.68
2018-09-11T01:25:40.256Z,8.73
2018-09-11T01:26:44.698Z,10.95
2018-09-11T01:27:48.847Z,8.50
2018-09-11T01:28:52.865Z,7.67
2018-09-11T01:29:56.968Z,6.85
2018-09-11T01:31:00.987Z,6.17
2018-09-11T01:32:05.191Z,6.37
2018-09-11T01:33:09.374Z,5.60
2018-09-11T01:34:13.370Z,4.40
2018-09-11T01:35:17.558Z,5.17
2018-09-11T01:36:22.150Z,5.45
2018-09-11T01:37:26.234Z,6.30
2018-09-11T01:38:30.285Z,4.90
2018-09-11T01:39:34.502Z,4.80
2018-09-11T01:40:38.624Z,5.05
2018-09-11T01:41:42.747Z,5.78
2018-09-11T01:42:47.163Z,4.80
2018-09-11T01:43:51.733Z,4.17
2018-09-11T01:44:56.305Z,4.65
2018-09-11T01:46:00.411Z,4.40
2018-09-11T01:47:04.677Z,4.65
2018-09-11T01:48:09.176Z,4.58
2018-09-11T01:49:13.350Z,4.95
2018-09-11T01:50:18.380Z,4.85
2018-09-11T01:51:22.744Z,4.85
2018-09-11T01:52:27.140Z,5.90
2018-09-11T01:53:31.294Z,6.00
2018-09-11T01:54:35.644Z,5.25
2018-09-11T01:55:39.833Z,5.50
2018-09-11T01:56:44.261Z,4.58
2018-09-11T01:57:48.738Z,5.50
2018-09-11T01:58:53.186Z,5.00
2018-09-11T01:59:57.222Z,5.40
2018-09-11T02:01:01.456Z,4.45
2018-09-11T02:02:05.810Z,4.35
2018-09-11T02:03:10.083Z,7.15
2018-09-11T02:04:14.535Z,6.37
2018-09-11T02:05:19.074Z,4.20
2018-09-11T02:06:23.176Z,3.67
2018-09-11T02:07:27.342Z,4.47
2018-09-11T02:08:31.373Z,4.53
2018-09-11T02:09:35.719Z,4.45
2018-09-11T02:10:40.075Z,4.08
2018-09-11T02:11:44.083Z,4.30
2018-09-11T02:12:48.124Z,4.15
2018-09-11T02:13:52.617Z,4.65
2018-09-11T02:14:57.153Z,4.28
2018-09-11T02:16:01.231Z,4.97
2018-09-11T02:17:05.615Z,4.67
2018-09-11T02:18:09.628Z,5.42
2018-09-11T02:19:13.870Z,4.40
2018-09-11T02:20:18.290Z,5.10
2018-09-11T02:21:22.900Z,5.00
2018-09-11T02:22:27.081Z,5.40
2018-09-11T02:23:31.358Z,5.58
2018-09-11T02:24:35.506Z,5.20
2018-09-11T02:25:39.714Z,4.60
2018-09-11T02:26:44.089Z,4.85
2018-09-11T02:27:48.554Z,4.45
2018-09-11T02:28:53.052Z,4.40
2018-09-11T02:29:57.351Z,4.60
2018-09-11T02:31:01.820Z,4.97
2018-09-11T02:32:06.189Z,4.75
2018-09-11T02:33:10.681Z,4.95
2018-09-11T02:34:15.161Z,4.50
2018-09-11T02:35:19.467Z,4.47
2018-09-11T02:36:23.917Z,3.95
2018-09-11T02:37:28.289Z,4.47
2018-09-11T02:38:32.897Z,3.90
2018-09-11T02:39:37.354Z,4.95
2018-09-11T02:40:41.865Z,3.92
2018-09-11T02:41:46.154Z,4.50
2018-09-11T02:42:50.377Z,3.80
2018-09-11T02:43:54.546Z,4.15
2018-09-11T02:44:58.955Z,4.03
2018-09-11T02:46:03.018Z,3.98
2018-09-11T02:47:07.321Z,3.77
2018-09-11T02:48:11.505Z,3.90
2018-09-11T02:49:16.343Z,3.98
2018-09-11T02:50:20.854Z,3.55
2018-09-11T02:51:24.931Z,4.08
2018-09-11T02:52:29.038Z,3.72
2018-09-11T02:53:33.184Z,4.87
2018-09-11T02:54:37.607Z,4.35
2018-09-11T02:55:41.974Z,4.20
2018-09-11T02:56:46.445Z,5.28
2018-09-11T02:57:50.786Z,4.37
2018-09-11T02:58:55.073Z,5.10
2018-09-11T03:00:00.895Z,4.55
2018-09-11T03:01:05.151Z,3.90
2018-09-11T03:02:09.258Z,4.90
2018-09-11T03:03:13.434Z,4.08
2018-09-11T03:04:17.518Z,4.28
2018-09-11T03:05:21.659Z,4.22
2018-09-11T03:06:25.994Z,5.42
2018-09-11T03:07:30.028Z,4.12
2018-09-11T03:08:34.383Z,4.97
2018-09-11T03:09:39.337Z,3.83
2018-09-11T03:10:43.402Z,3.83
2018-09-11T03:11:47.440Z,4.30
2018-09-11T03:12:51.557Z,3.67
2018-09-11T03:13:55.648Z,3.42
2018-09-11T03:14:59.800Z,4.03
2018-09-11T03:16:04.732Z,3.98
2018-09-11T03:17:09.003Z,4.17
2018-09-11T03:18:13.077Z,4.37
2018-09-11T03:19:17.140Z,3.58
2018-09-11T03:20:21.255Z,4.03
2018-09-11T03:21:25.246Z,3.50
2018-09-11T03:22:29.586Z,3.87
2018-09-11T03:23:33.688Z,4.35
2018-09-11T03:24:37.686Z,3.72
2018-09-11T03:25:42.010Z,4.47
2018-09-11T03:26:46.193Z,4.50
2018-09-11T03:27:50.581Z,5.85
2018-09-11T03:28:54.783Z,5.50
2018-09-11T03:30:01.227Z,5.70
2018-09-11T03:31:05.358Z,5.60
2018-09-11T03:32:09.732Z,6.00
2018-09-11T03:33:14.061Z,6.35
2018-09-11T03:34:18.727Z,6.10
2018-09-11T03:35:22.982Z,7.45
2018-09-11T03:36:27.380Z,6.17
2018-09-11T03:37:31.568Z,7.00
2018-09-11T03:40:31.606Z,6.70
2018-09-11T03:41:35.780Z,7.47
2018-09-11T03:42:40.127Z,7.45
2018-09-11T03:43:50.875Z,7.83
2018-09-11T03:44:54.947Z,7.62
2018-09-11T03:45:59.090Z,8.73
2018-09-11T03:47:03.181Z,7.67
2018-09-11T03:48:07.314Z,9.05
2018-09-11T03:49:11.446Z,10.18
2018-09-11T03:50:16.479Z,11.28
2018-09-11T03:51:20.963Z,9.78
2018-09-11T03:52:25.077Z,11.05
2018-09-11T03:53:29.085Z,11.25
2018-09-11T03:54:33.143Z,11.55
2018-09-11T03:55:37.346Z,11.75
2018-09-11T03:56:41.796Z,11.25
2018-09-11T03:57:45.857Z,9.55
2018-09-11T03:58:50.247Z,11.15
2018-09-11T03:59:54.276Z,11.12
2018-09-11T04:00:58.374Z,10.45
2018-09-11T04:02:02.573Z,12.10
2018-09-11T04:03:06.765Z,11.00
2018-09-11T04:04:10.905Z,9.63
2018-09-11T04:05:15.300Z,10.38
2018-09-11T04:06:19.382Z,7.87
2018-09-11T04:07:23.428Z,8.33
2018-09-11T04:08:27.547Z,9.00
2018-09-11T04:09:31.621Z,8.50
2018-09-11T04:10:35.698Z,9.60
2018-09-11T04:11:39.998Z,9.00
2018-09-11T04:12:44.270Z,8.40
2018-09-11T04:13:48.477Z,7.80
2018-09-11T04:14:52.598Z,6.95
2018-09-11T04:15:56.650Z,6.42
2018-09-11T04:17:00.680Z,5.10
2018-09-11T04:18:04.936Z,6.08
2018-09-11T04:19:09.061Z,5.35
2018-09-11T04:20:13.127Z,7.53
2018-09-11T04:21:17.635Z,4.75
2018-09-11T04:22:21.707Z,4.65
2018-09-11T04:23:25.782Z,5.62
2018-09-11T04:24:29.794Z,5.30
2018-09-11T04:25:35.061Z,6.00
2018-09-11T04:26:39.305Z,4.85
2018-09-11T04:27:43.315Z,5.08
2018-09-11T04:28:47.660Z,5.53
2018-09-11T04:29:51.665Z,5.65
2018-09-11T04:30:57.596Z,5.20
2018-09-11T04:32:01.713Z,5.00
2018-09-11T04:33:05.838Z,5.60
2018-09-11T04:34:09.964Z,5.55
2018-09-11T04:35:14.155Z,6.72
2018-09-11T04:36:18.268Z,7.08
2018-09-11T04:37:22.729Z,5.92
2018-09-11T04:38:27.126Z,5.70
2018-09-11T04:39:32.063Z,5.37
2018-09-11T04:40:37.082Z,5.87
2018-09-11T04:41:42.197Z,5.45
2018-09-11T04:42:46.311Z,5.47
2018-09-11T04:43:50.500Z,6.30
2018-09-11T04:44:55.365Z,5.33
2018-09-11T04:45:59.612Z,6.45
2018-09-11T04:47:03.685Z,5.33
2018-09-11T04:48:07.751Z,5.20
2018-09-11T04:49:11.814Z,4.53
2018-09-11T04:50:17.946Z,5.15
2018-09-11T04:51:22.145Z,5.10
2018-09-11T04:52:26.335Z,4.70
2018-09-11T04:53:30.428Z,5.03
2018-09-11T04:54:34.547Z,4.55
2018-09-11T04:55:38.903Z,5.50
2018-09-11T04:56:43.083Z,5.42
2018-09-11T04:57:47.134Z,4.75
2018-09-11T04:58:51.375Z,5.15
2018-09-11T04:59:55.427Z,4.33
2018-09-11T05:00:59.835Z,5.20
2018-09-11T05:02:05.506Z,4.17
2018-09-11T05:03:11.414Z,6.03
2018-09-11T05:04:15.475Z,4.70
2018-09-11T05:05:19.603Z,4.67
2018-09-11T05:06:23.673Z,5.95
2018-09-11T05:07:28.087Z,5.72
2018-09-11T05:08:32.125Z,4.45
2018-09-11T05:09:36.175Z,4.80
2018-09-11T05:10:40.230Z,4.30
2018-09-11T05:11:44.419Z,4.75
2018-09-11T05:12:49.163Z,3.85
2018-09-11T05:13:53.203Z,5.22
2018-09-11T05:14:57.316Z,4.22
2018-09-11T05:16:01.420Z,4.20
2018-09-11T05:17:06.651Z,4.30
2018-09-11T05:18:11.024Z,4.70
2018-09-11T05:19:15.684Z,5.22
2018-09-11T05:20:19.760Z,5.37
2018-09-11T05:21:23.804Z,5.75
2018-09-11T05:22:30.106Z,5.55
2018-09-11T05:23:34.176Z,7.47
2018-09-11T05:24:38.280Z,6.25
2018-09-11T05:25:42.464Z,4.92
2018-09-11T05:26:46.557Z,4.85
2018-09-11T05:27:51.631Z,4.67
2018-09-11T05:28:55.753Z,4.37
2018-09-11T05:30:00.585Z,5.75
2018-09-11T05:31:09.425Z,4.92
2018-09-11T05:32:14.381Z,4.92
2018-09-11T05:33:19.029Z,6.28
2018-09-11T05:34:23.162Z,5.83
2018-09-11T05:35:27.429Z,4.60
2018-09-11T05:36:31.607Z,5.90
2018-09-11T05:37:38.229Z,4.25
2018-09-11T05:38:44.574Z,5.62
2018-09-11T05:39:50.302Z,5.83
2018-09-11T05:40:56.585Z,5.05
2018-09-11T05:42:01.620Z,5.37
2018-09-11T05:43:05.843Z,6.95
2018-09-11T05:44:09.961Z,5.85
2018-09-11T05:45:14.766Z,5.45
2018-09-11T05:46:20.171Z,5.65
2018-09-11T05:47:25.580Z,6.90
2018-09-11T05:48:30.288Z,23.20
2018-09-11T05:49:34.676Z,41.98
2018-09-11T05:50:40.579Z,32.28
2018-09-11T05:51:44.811Z,16.65
2018-09-11T05:52:48.998Z,17.30
2018-09-11T05:53:54.541Z,16.17
2018-09-11T05:55:02.103Z,15.23
2018-09-11T05:56:07.654Z,9.85
2018-09-11T05:57:49.469Z,7.97
2018-09-11T05:58:55.047Z,5.70
2018-09-11T05:59:59.924Z,6.33
2018-09-11T06:01:09.207Z,5.75
2018-09-11T06:02:26.084Z,6.15
2018-09-11T06:03:30.657Z,6.72
2018-09-11T06:04:34.747Z,5.10
2018-09-11T06:05:39.915Z,7.30
2018-09-11T06:06:43.944Z,5.10
2018-09-11T06:09:52.963Z,6.37
2018-09-11T06:11:05.425Z,4.50
2018-09-11T06:12:09.739Z,5.70
2018-09-11T06:13:14.047Z,4.40
2018-09-11T06:14:18.803Z,4.92
2018-09-11T06:15:29.490Z,4.80
2018-09-11T06:16:39.914Z,5.42
2018-09-11T06:17:47.604Z,5.33
2018-09-11T06:18:53.238Z,4.03
2018-09-11T06:22:03.054Z,6.03
2018-09-11T06:23:08.919Z,4.40
2018-09-11T06:24:13.576Z,5.75
2018-09-11T06:25:24.187Z,5.22
2018-09-11T06:26:28.746Z,6.53
2018-09-11T06:27:34.205Z,5.10
2018-09-11T06:28:39.055Z,5.78
2018-09-11T06:29:43.599Z,4.87
2018-09-11T06:30:48.203Z,4.78
2018-09-11T06:31:52.778Z,6.62
2018-09-11T06:33:05.396Z,5.83
2018-09-11T06:34:15.067Z,7.83
2018-09-11T06:35:20.518Z,5.75
2018-09-11T06:36:30.189Z,5.75
2018-09-11T06:37:34.501Z,7.70
2018-09-11T06:38:51.965Z,8.35
2018-09-11T06:42:39.237Z,4.58
2018-09-11T06:43:51.743Z,5.12
2018-09-11T06:45:03.270Z,5.30
2018-09-11T06:46:08.115Z,4.70
2018-09-11T06:47:12.963Z,5.62
2018-09-11T06:48:25.806Z,5.40
2018-09-11T06:49:36.634Z,4.50
2018-09-11T06:50:42.191Z,4.83
2018-09-11T06:51:46.592Z,3.98
2018-09-11T06:52:52.110Z,6.22
2018-09-11T06:54:04.368Z,5.67
2018-09-11T07:00:56.259Z,4.40
2018-09-11T07:02:00.882Z,4.40
2018-09-11T07:03:05.599Z,5.37
2018-09-11T07:04:09.987Z,3.92
2018-09-11T07:05:14.835Z,4.58
2018-09-11T07:06:45.330Z,9.38
2018-09-11T07:07:51.086Z,5.83
2018-09-11T07:08:56.401Z,6.33
2018-09-11T07:10:01.110Z,5.35
2018-09-11T07:11:12.103Z,4.90
2018-09-11T07:12:16.785Z,4.47
2018-09-11T07:13:21.367Z,4.70
2018-09-11T07:14:25.927Z,4.58
2018-09-11T07:15:30.725Z,4.50
2018-09-11T07:18:09.275Z,4.70
2018-09-11T07:19:18.249Z,4.17
2018-09-11T07:20:32.485Z,4.22
2018-09-11T07:21:49.584Z,3.33
2018-09-11T07:22:54.677Z,5.65
2018-09-11T07:23:59.829Z,4.95
2018-09-11T07:25:04.446Z,8.70
2018-09-11T07:26:11.173Z,6.65
2018-09-11T07:27:15.774Z,6.50
2018-09-11T07:28:20.203Z,5.80
2018-09-11T07:29:24.979Z,4.58
2018-09-11T07:30:29.335Z,5.20
2018-09-11T07:31:36.649Z,5.40
2018-09-11T07:32:41.796Z,5.45
2018-09-11T07:33:46.228Z,4.70
2018-09-11T07:34:50.705Z,4.78
2018-09-11T07:36:00.345Z,4.60
2018-09-11T07:37:05.090Z,4.60
2018-09-11T07:38:09.277Z,8.83
2018-09-11T07:39:14.204Z,6.12
2018-09-11T07:40:18.936Z,5.00
2018-09-11T07:41:53.820Z,5.50
2018-09-11T07:42:58.213Z,4.90
2018-09-11T07:44:03.647Z,4.22
2018-09-11T07:45:08.156Z,4.50
2018-09-11T07:46:13.797Z,3.98
2018-09-11T07:47:22.626Z,3.50
2018-09-11T07:48:27.299Z,4.47
2018-09-11T07:49:31.765Z,4.42
2018-09-11T07:50:37.179Z,4.00
2018-09-11T07:51:41.946Z,3.00
2018-09-11T07:52:47.279Z,3.85
2018-09-11T07:53:53.500Z,4.60
2018-09-11T07:54:59.098Z,5.97
2018-09-11T07:56:03.782Z,4.33
2018-09-11T07:57:10.965Z,3.37
2018-09-11T07:59:30.554Z,3.20
2018-09-11T08:00:35.124Z,2.98
2018-09-11T08:01:40.216Z,4.72
2018-09-11T08:02:44.686Z,3.98
2018-09-11T08:03:51.187Z,3.33
2018-09-11T08:04:56.089Z,2.40
2018-09-11T08:06:00.831Z,3.27
2018-09-11T08:07:05.379Z,3.12
2018-09-11T08:08:10.907Z,2.60
2018-09-11T08:09:15.282Z,3.45
2018-09-11T08:10:19.662Z,3.20
2018-09-11T08:11:24.321Z,3.77
2018-09-11T08:12:28.808Z,4.67
2018-09-11T08:13:33.623Z,4.05
2018-09-11T08:14:38.238Z,4.15
2018-09-11T08:15:42.579Z,3.15
2018-09-11T08:16:47.858Z,3.60
2018-09-11T08:17:52.442Z,3.30
2018-09-11T08:18:56.895Z,3.83
2018-09-11T08:20:01.527Z,3.77
2018-09-11T08:21:08.222Z,3.00
2018-09-11T08:22:13.967Z,3.60
2018-09-11T08:23:19.766Z,4.05
2018-09-11T08:24:29.244Z,3.92
2018-09-11T08:25:33.796Z,4.33
2018-09-11T08:26:38.095Z,4.03
2018-09-11T08:27:43.002Z,4.00
2018-09-11T08:28:52.268Z,4.10
2018-09-11T08:29:57.259Z,3.77
2018-09-11T08:31:01.724Z,4.92
2018-09-11T08:32:08.840Z,5.40
2018-09-11T08:33:15.370Z,3.67
2018-09-11T08:34:20.302Z,6.03
2018-09-11T08:35:25.298Z,5.30
2018-09-11T08:36:30.315Z,4.30
2018-09-11T08:37:34.828Z,4.87
2018-09-11T08:38:40.389Z,4.55
2018-09-11T08:39:44.743Z,3.80
2018-09-11T08:40:51.234Z,3.20
2018-09-11T08:41:56.380Z,4.20
2018-09-11T08:43:08.876Z,2.70
2018-09-11T08:44:15.187Z,3.55
2018-09-11T08:45:21.314Z,3.72
2018-09-11T08:46:25.862Z,3.30
2018-09-11T08:47:30.323Z,2.70
2018-09-11T08:48:34.817Z,3.00
2018-09-11T08:49:39.771Z,3.95
2018-09-11T08:50:44.736Z,3.08
2018-09-11T08:51:49.400Z,3.90
2018-09-11T08:52:53.824Z,3.15
2018-09-11T08:53:58.627Z,3.20
2018-09-11T08:55:06.638Z,2.70
2018-09-11T08:56:17.449Z,2.90
2018-09-11T08:57:24.023Z,2.80
2018-09-11T08:58:52.736Z,3.70
2018-09-11T08:59:58.096Z,3.58
2018-09-11T09:01:03.111Z,2.60
2018-09-11T09:02:08.121Z,3.65
2018-09-11T09:03:12.552Z,3.10
2018-09-11T09:04:32.043Z,2.92
2018-09-11T09:05:37.203Z,3.85
2018-09-11T09:06:43.575Z,3.45
2018-09-11T09:07:48.763Z,2.98
2018-09-11T09:08:53.352Z,3.35
2018-09-11T09:09:57.923Z,2.75
2018-09-11T09:11:03.273Z,2.70
2018-09-11T09:12:12.413Z,3.20
2018-09-11T09:13:18.842Z,3.10
2018-09-11T09:14:26.681Z,4.60
2018-09-11T09:15:31.941Z,3.95
2018-09-11T09:16:36.503Z,3.83
2018-09-11T09:17:40.865Z,2.50
2018-09-11T09:18:47.319Z,3.10
2018-09-11T09:19:54.564Z,3.27
2018-09-11T09:21:05.810Z,2.72
2018-09-11T09:22:14.868Z,2.52
2018-09-11T09:23:22.416Z,3.40
2018-09-11T09:24:28.482Z,3.30
2018-09-11T09:25:34.319Z,3.42
2018-09-11T09:26:41.037Z,2.85
2018-09-11T09:27:48.511Z,2.37
2018-09-11T09:28:57.696Z,3.30
2018-09-11T09:30:07.503Z,8.15
2018-09-11T09:31:14.479Z,5.40
2018-09-11T09:32:44.085Z,3.20
2018-09-11T09:34:28.851Z,3.30
2018-09-11T09:35:43.251Z,2.90
2018-09-11T09:36:48.097Z,3.05
2018-09-11T09:37:53.756Z,2.92
2018-09-11T09:39:02.008Z,2.62
2018-09-11T09:40:14.759Z,3.70
2018-09-11T09:41:21.342Z,2.85
2018-09-11T09:42:26.711Z,2.80
2018-09-11T09:43:31.698Z,3.85
2018-09-11T09:44:36.674Z,2.35
2018-09-11T09:45:41.706Z,2.52
2018-09-11T09:46:46.121Z,2.67
2018-09-11T09:47:51.184Z,2.60
2018-09-11T09:48:57.800Z,3.15
2018-09-11T09:50:02.191Z,3.10
2018-09-11T09:51:07.000Z,2.65
2018-09-11T09:52:16.334Z,3.00
2018-09-11T09:53:22.622Z,2.90
2018-09-11T09:54:27.146Z,2.92
2018-09-11T09:55:32.380Z,2.42
2018-09-11T09:56:39.033Z,3.22
2018-09-11T09:57:50.015Z,2.92
2018-09-11T09:58:59.322Z,3.60
2018-09-11T10:00:07.158Z,2.47
2018-09-11T10:01:17.023Z,2.52
2018-09-11T10:02:23.104Z,4.10
2018-09-11T10:03:34.631Z,3.00
2018-09-11T10:04:41.980Z,2.95
2018-09-11T10:06:09.081Z,2.95
2018-09-11T10:07:15.079Z,2.60
2018-09-11T10:08:19.290Z,2.85
2018-09-11T10:09:24.648Z,2.35
2018-09-11T10:10:30.607Z,2.90
2018-09-11T10:11:37.616Z,2.75
2018-09-11T10:12:42.193Z,2.80
2018-09-11T10:13:49.296Z,2.87
2018-09-11T10:14:54.380Z,3.08
2018-09-11T10:16:00.399Z,2.83
2018-09-11T10:17:07.970Z,2.90
2018-09-11T10:18:12.850Z,2.70
2018-09-11T10:19:19.116Z,3.20
2018-09-11T10:20:24.719Z,3.08
2018-09-11T10:21:30.781Z,2.75
2018-09-11T10:22:37.578Z,2.77
2018-09-11T10:23:44.631Z,2.75
2018-09-11T10:24:56.687Z,3.02
2018-09-11T10:26:04.717Z,2.98
2018-09-11T10:27:19.715Z,2.60
2018-09-11T10:28:33.247Z,2.50
2018-09-11T10:29:54.422Z,2.42
2018-09-11T10:31:05.929Z,2.70
2018-09-11T10:32:11.657Z,2.33
2018-09-11T10:33:18.061Z,4.17
2018-09-11T10:34:30.405Z,3.08
2018-09-11T10:35:41.625Z,2.90
2018-09-11T10:36:56.809Z,2.85
2018-09-11T10:38:08.572Z,3.02
2018-09-11T10:39:16.831Z,2.75
2018-09-11T10:40:22.930Z,4.03
2018-09-11T10:41:32.325Z,2.40
2018-09-11T10:42:58.776Z,3.42
2018-09-11T10:44:19.686Z,2.70
2018-09-11T10:48:52.638Z,2.90
2018-09-11T10:50:00.352Z,4.05
2018-09-11T10:51:06.810Z,3.25
2018-09-11T10:52:13.552Z,3.10
2018-09-11T10:53:22.228Z,2.77
2018-09-11T10:54:26.565Z,3.12
2018-09-11T10:55:33.337Z,3.00
2018-09-11T10:56:38.850Z,3.20
2018-09-11T10:57:43.307Z,3.12
2018-09-11T10:58:48.306Z,2.60
2018-09-11T10:59:52.378Z,2.50
2018-09-11T11:02:08.772Z,2.55
2018-09-11T11:03:15.229Z,2.67
2018-09-11T11:04:20.818Z,2.85
2018-09-11T11:05:27.813Z,3.62
2018-09-11T11:06:33.231Z,2.90
2018-09-11T11:07:38.470Z,2.90
2018-09-11T11:08:45.186Z,2.55
2018-09-11T11:09:51.365Z,3.47
2018-09-11T11:10:59.532Z,3.00
2018-09-11T11:12:05.770Z,3.30
2018-09-11T11:13:10.103Z,3.70
2018-09-11T11:14:16.242Z,3.12
2018-09-11T11:15:21.416Z,3.50
2018-09-11T11:16:27.851Z,2.98
2018-09-11T11:17:33.255Z,3.00
2018-09-11T11:18:37.630Z,2.67
2018-09-11T11:19:42.715Z,2.62
2018-09-11T11:20:50.101Z,3.02
2018-09-11T11:21:57.157Z,2.52
2018-09-11T11:23:04.254Z,3.17
2018-09-11T11:24:16.396Z,3.85
2018-09-11T11:25:22.355Z,3.10
2018-09-11T11:26:28.317Z,2.98
2018-09-11T11:27:34.553Z,3.60
2018-09-11T11:32:07.193Z,3.87
2018-09-11T11:33:15.324Z,3.60
2018-09-11T11:34:23.547Z,3.05
2018-09-11T11:35:31.347Z,2.98
2018-09-11T11:36:36.389Z,2.83
2018-09-11T11:37:42.643Z,2.85
2018-09-11T11:38:50.940Z,3.40
2018-09-11T11:40:01.144Z,2.80
2018-09-11T11:41:08.247Z,2.90
2018-09-11T11:42:13.499Z,3.15
2018-09-11T11:43:23.349Z,2.47
2018-09-11T11:44:31.302Z,2.65
2018-09-11T11:45:43.185Z,2.20
2018-09-11T11:46:49.930Z,2.55
2018-09-11T11:47:57.460Z,2.98
2018-09-11T11:49:03.211Z,2.30
2018-09-11T11:50:08.136Z,2.20
2018-09-11T11:51:13.623Z,2.05
2018-09-11T11:52:17.991Z,2.33
2018-09-11T11:53:23.855Z,2.90
2018-09-11T11:54:31.775Z,2.35
2018-09-11T11:55:37.230Z,2.45
2018-09-11T11:56:41.661Z,2.55
2018-09-11T11:57:47.701Z,3.10
2018-09-11T11:58:54.197Z,3.00
2018-09-11T12:00:02.919Z,2.75
2018-09-11T12:01:13.983Z,2.77
2018-09-11T12:02:27.585Z,1.92
2018-09-11T12:03:40.234Z,2.40
2018-09-11T12:04:46.256Z,1.70
2018-09-11T12:05:52.488Z,2.40
2018-09-11T12:07:00.847Z,2.67
2018-09-11T12:08:06.604Z,2.45
2018-09-11T12:09:13.332Z,3.17
2018-09-11T12:10:17.757Z,3.40
2018-09-11T12:11:22.663Z,2.58
2018-09-11T12:12:35.213Z,2.42
2018-09-11T12:13:45.196Z,2.37
2018-09-11T12:14:55.180Z,1.92
2018-09-11T12:16:12.327Z,2.62
2018-09-11T12:17:21.858Z,2.80
2018-09-11T12:18:35.358Z,2.62
2018-09-11T12:19:42.291Z,2.60
2018-09-11T12:20:51.555Z,2.27
2018-09-11T12:22:02.301Z,2.35
2018-09-11T12:23:10.230Z,2.75
2018-09-11T12:24:17.083Z,2.87
2018-09-11T12:25:24.705Z,2.65
2018-09-11T12:26:30.317Z,2.40
2018-09-11T12:27:36.695Z,2.25
2018-09-11T12:28:42.436Z,2.90
2018-09-11T12:29:46.750Z,2.35
2018-09-11T12:30:52.321Z,2.85
2018-09-11T12:31:56.400Z,2.70
2018-09-11T12:33:01.500Z,3.02
2018-09-11T12:34:05.764Z,2.83
2018-09-11T12:35:10.286Z,3.02
2018-09-11T12:36:14.458Z,2.85
2018-09-11T12:37:18.949Z,2.62
2018-09-11T12:38:23.075Z,2.83
2018-09-11T12:39:27.142Z,2.80
2018-09-11T12:40:31.324Z,3.20
2018-09-11T12:41:36.283Z,3.35
2018-09-11T12:42:40.738Z,2.70
2018-09-11T12:43:45.078Z,2.50
2018-09-11T12:44:49.215Z,2.70
2018-09-11T12:45:53.428Z,3.05
2018-09-11T12:46:58.701Z,3.15
2018-09-11T12:48:07.860Z,2.50
2018-09-11T12:49:11.707Z,3.58
2018-09-11T12:50:17.480Z,2.12
2018-09-11T12:51:25.165Z,2.70
2018-09-11T12:52:30.031Z,2.92
2018-09-11T12:53:36.102Z,3.17
2018-09-11T12:54:41.202Z,2.20
2018-09-11T12:55:45.391Z,3.00
2018-09-11T12:56:52.587Z,2.50
2018-09-11T12:57:58.403Z,2.90
2018-09-11T12:59:02.559Z,2.95
2018-09-11T13:00:08.191Z,3.30
2018-09-11T13:01:12.626Z,3.00
2018-09-11T13:02:18.210Z,2.90
2018-09-11T13:03:22.717Z,3.40
2018-09-11T13:04:28.176Z,2.80
2018-09-11T13:05:35.699Z,3.33
2018-09-11T13:06:42.678Z,3.15
2018-09-11T13:07:47.648Z,3.02
2018-09-11T13:08:53.178Z,3.35
2018-09-11T13:09:58.769Z,2.80
2018-09-11T13:11:06.412Z,2.67
2018-09-11T13:12:10.523Z,3.85
2018-09-11T13:13:18.674Z,2.90
2018-09-11T13:14:24.084Z,3.70
2018-09-11T13:15:29.437Z,3.15
2018-09-11T13:16:34.650Z,3.05
2018-09-11T13:17:40.643Z,2.60
2018-09-11T13:18:47.471Z,3.65
2018-09-11T13:19:54.748Z,3.52
2018-09-11T13:21:00.945Z,3.60
2018-09-11T13:22:07.466Z,3.40
2018-09-11T13:23:11.810Z,3.30
2018-09-11T13:24:20.290Z,3.50
2018-09-11T13:25:24.542Z,3.25
2018-09-11T13:26:29.324Z,2.95
2018-09-11T13:27:33.636Z,3.65
2018-09-11T13:28:37.792Z,3.25
2018-09-11T13:29:42.815Z,3.58
2018-09-11T13:30:46.886Z,3.30
2018-09-11T13:31:51.898Z,2.85
2018-09-11T13:32:56.777Z,2.90
2018-09-11T13:34:00.986Z,2.58
2018-09-11T13:35:05.188Z,3.22
2018-09-11T13:36:10.039Z,3.27
2018-09-11T13:37:14.158Z,3.20
2018-09-11T13:38:19.620Z,3.02
2018-09-11T13:39:25.799Z,3.17
2018-09-11T13:40:30.303Z,3.20
2018-09-11T13:41:37.497Z,3.15
2018-09-11T13:42:44.210Z,3.67
2018-09-11T13:43:53.467Z,2.70
2018-09-11T13:44:58.138Z,2.95
2018-09-11T13:46:07.382Z,3.12
2018-09-11T13:47:12.646Z,3.60
2018-09-11T13:48:17.200Z,3.00
2018-09-11T13:49:28.336Z,3.75
2018-09-11T13:50:36.668Z,4.50
2018-09-11T13:51:43.095Z,3.40
2018-09-11T13:52:48.656Z,3.05
2018-09-11T13:53:54.171Z,3.65
2018-09-11T13:54:58.815Z,2.95
2018-09-11T13:56:03.290Z,3.22
2018-09-11T13:57:10.382Z,2.70
2018-09-11T13:58:18.102Z,3.80
2018-09-11T13:59:24.746Z,3.47
2018-09-11T14:00:29.284Z,3.45
2018-09-11T14:01:34.766Z,3.42
2018-09-11T14:02:42.403Z,4.00
2018-09-11T14:03:48.264Z,3.27
2018-09-11T14:04:55.028Z,3.05
2018-09-11T14:06:00.695Z,3.58
2018-09-11T14:07:05.299Z,5.00
2018-09-11T14:08:10.108Z,3.22
2018-09-11T14:09:18.877Z,3.33
2018-09-11T14:10:25.263Z,3.70
2018-09-11T14:11:31.087Z,2.92
2018-09-11T14:12:35.823Z,3.70
2018-09-11T14:13:40.415Z,2.83
2018-09-11T14:14:45.020Z,3.00
2018-09-11T14:15:50.392Z,3.27
2018-09-11T14:16:54.767Z,3.20
2018-09-11T14:17:59.169Z,3.85
2018-09-11T14:19:08.138Z,4.15
2018-09-11T14:20:12.447Z,3.72
2018-09-11T14:21:20.572Z,3.72
2018-09-11T14:22:24.692Z,3.75
2018-09-11T14:23:29.849Z,4.08
2018-09-11T14:24:37.571Z,4.30
2018-09-11T14:25:43.923Z,3.75
2018-09-11T14:26:49.188Z,3.30
2018-09-11T14:27:54.520Z,3.50
2018-09-11T14:28:58.941Z,3.40
2018-09-11T14:30:04.396Z,3.10
2018-09-11T14:31:08.578Z,3.25
2018-09-11T14:32:17.039Z,3.67
2018-09-11T14:33:27.493Z,2.92
2018-09-11T14:34:34.309Z,3.27
2018-09-11T14:35:39.237Z,3.37
2018-09-11T14:36:43.523Z,3.58
2018-09-11T14:37:48.048Z,3.27
2018-09-11T14:38:53.429Z,3.67
2018-09-11T14:40:00.084Z,3.20
2018-09-11T14:41:09.568Z,3.60
2018-09-11T14:42:15.471Z,3.95
2018-09-11T14:43:24.347Z,2.98
2018-09-11T14:44:31.654Z,4.87
2018-09-11T14:45:36.583Z,3.62
2018-09-11T14:46:41.040Z,2.80
2018-09-11T14:47:47.614Z,3.72
2018-09-11T14:48:52.450Z,2.70
2018-09-11T14:49:59.211Z,3.95
2018-09-11T14:51:04.336Z,3.60
2018-09-11T14:52:09.371Z,3.42
2018-09-11T14:53:14.676Z,3.60
2018-09-11T14:54:19.845Z,2.67
2018-09-11T14:55:24.565Z,4.05
2018-09-11T14:56:29.074Z,3.92
2018-09-11T14:57:35.323Z,2.80
2018-09-11T14:58:40.058Z,2.90
2018-09-11T14:59:44.835Z,3.17
2018-09-11T15:00:52.268Z,3.00
2018-09-11T15:01:58.195Z,3.02